createdAt,value
2022-08-07T08:15:57.966Z,17.68
2022-08-07T08:22:02.995Z,17.67
2022-08-07T08:24:57.288Z,17.52
2022-08-07T08:27:44.043Z,17.47
2022-08-07T08:30:32.253Z,17.26
2022-08-07T08:33:15.219Z,17.37
2022-08-07T08:35:51.760Z,17.47
2022-08-07T08:38:29.380Z,17.41
2022-08-07T08:41:09.715Z,17.38
2022-08-07T08:43:58.982Z,17.31
2022-08-07T08:46:49.131Z,17.33
2022-08-07T08:49:32.674Z,17.42
2022-08-07T08:52:53.855Z,17.47
2022-08-07T08:55:54.371Z,17.46
2022-08-07T08:58:28.977Z,17.62
2022-08-07T09:01:18.498Z,17.74
2022-08-07T09:03:55.629Z,17.78
2022-08-07T09:06:51.005Z,17.82
2022-08-07T09:09:43.779Z,17.86
2022-08-07T09:12:40.689Z,17.86
2022-08-07T09:16:23.130Z,18.02
2022-08-07T09:18:53.182Z,18.07
2022-08-07T09:21:34.152Z,18.12
2022-08-07T09:24:58.994Z,17.91
2022-08-07T09:27:59.701Z,17.89
2022-08-07T09:30:48.169Z,17.69
2022-08-07T09:33:52.572Z,17.68
2022-08-07T09:36:37.369Z,17.69
2022-08-07T09:39:55.560Z,17.83
2022-08-07T09:42:53.875Z,17.81
2022-08-07T09:47:50.659Z,17.80
2022-08-07T09:50:02.026Z,17.92
2022-08-07T09:52:15.720Z,17.90
2022-08-07T09:55:17.326Z,17.88
2022-08-07T09:58:16.959Z,17.95
2022-08-07T10:01:08.512Z,18.07
2022-08-07T10:04:05.809Z,18.16
2022-08-07T10:07:25.835Z,18.01
2022-08-07T10:10:12.100Z,17.97
2022-08-07T10:13:11.035Z,18.07
2022-08-07T10:16:24.413Z,18.21
2022-08-07T10:19:30.127Z,18.29
2022-08-07T10:22:15.833Z,18.38
2022-08-07T10:25:08.404Z,18.38
2022-08-07T10:27:51.372Z,18.30
2022-08-07T10:30:30.314Z,18.31
2022-08-07T10:34:05.805Z,18.31
2022-08-07T10:36:41.869Z,18.42
2022-08-07T10:39:41.518Z,18.45
2022-08-07T10:42:48.026Z,18.40
2022-08-07T10:45:57.247Z,18.45
2022-08-07T10:48:41.185Z,18.48
2022-08-07T10:52:02.352Z,18.50
2022-08-07T10:54:38.183Z,18.60
2022-08-07T10:57:34.276Z,18.65
2022-08-07T11:00:36.172Z,18.66
2022-08-07T11:03:11.181Z,18.80
2022-08-07T11:05:58.511Z,18.92
2022-08-07T11:08:55.782Z,18.90
2022-08-07T11:11:35.766Z,19.01
2022-08-07T11:14:45.087Z,19.15
2022-08-07T11:17:10.722Z,19.31
2022-08-07T11:19:52.613Z,19.34
2022-08-07T11:22:44.117Z,19.42
2022-08-07T11:25:48.176Z,19.49
2022-08-07T11:28:28.235Z,19.49
2022-08-07T11:31:15.974Z,19.60
2022-08-07T11:34:00.769Z,19.60
2022-08-07T11:36:49.621Z,19.78
2022-08-07T11:40:00.674Z,19.87
2022-08-07T11:43:05.890Z,19.95
2022-08-07T11:46:17.070Z,20.04
2022-08-07T11:49:50.804Z,20.08
2022-08-07T11:51:50.610Z,20.16
2022-08-07T11:54:55.084Z,20.10
2022-08-07T11:57:59.791Z,20.17
2022-08-07T12:01:02.654Z,20.24
2022-08-07T12:03:47.641Z,20.36
2022-08-07T12:06:37.693Z,20.43
2022-08-07T12:09:23.345Z,20.50
2022-08-07T12:12:12.311Z,20.58
2022-08-07T12:15:01.175Z,20.51
2022-08-07T12:17:58.962Z,20.60
2022-08-07T12:20:42.417Z,20.70
2022-08-07T12:24:05.032Z,20.69
2022-08-07T12:26:30.861Z,20.77
2022-08-07T12:29:37.140Z,20.87
2022-08-07T12:32:23.475Z,20.93
2022-08-07T12:34:57.257Z,21.00
2022-08-07T12:38:09.450Z,20.97
2022-08-07T12:40:46.669Z,21.00
2022-08-07T12:44:01.533Z,20.93
2022-08-07T12:46:26.399Z,20.90
2022-08-07T12:49:44.188Z,20.78
2022-08-07T12:52:19.516Z,20.81
2022-08-07T12:55:09.748Z,20.87
2022-08-07T12:58:01.367Z,20.93
2022-08-07T13:00:50.442Z,21.00
2022-08-07T13:04:00.559Z,20.92
2022-08-07T13:07:01.075Z,21.05
2022-08-07T13:10:19.679Z,21.11
2022-08-07T13:13:46.762Z,21.26
2022-08-07T13:16:46.842Z,21.33
2022-08-07T13:19:50.519Z,21.37
2022-08-07T13:22:37.274Z,21.45
2022-08-07T13:25:28.841Z,21.38
2022-08-07T13:28:13.411Z,21.41
2022-08-07T13:31:01.519Z,21.46
2022-08-07T13:34:32.661Z,21.42
2022-08-07T13:36:51.958Z,21.34
2022-08-07T13:40:33.785Z,21.25
2022-08-07T13:42:24.898Z,21.30
2022-08-07T13:45:21.069Z,21.25
2022-08-07T13:48:05.879Z,21.26
2022-08-07T13:50:45.103Z,21.23
2022-08-07T13:53:59.719Z,21.25
2022-08-07T13:56:36.037Z,21.23
2022-08-07T13:59:24.463Z,21.18
2022-08-07T14:02:12.906Z,21.09
2022-08-07T14:05:02.439Z,21.08
2022-08-07T14:08:00.123Z,21.06
2022-08-07T14:10:41.969Z,20.94
2022-08-07T14:13:21.732Z,20.92
2022-08-07T14:16:12.392Z,20.89
2022-08-07T14:18:57.273Z,20.78
2022-08-07T14:22:03.526Z,20.73
2022-08-07T14:24:33.321Z,20.69
2022-08-07T14:30:06.394Z,20.60
2022-08-07T14:32:46.790Z,20.55
2022-08-07T14:35:44.898Z,20.47
2022-08-07T14:38:30.264Z,20.41
2022-08-07T14:41:12.319Z,20.38
2022-08-07T14:46:51.936Z,20.30
2022-08-07T14:49:57.418Z,20.24
2022-08-07T14:52:28.909Z,20.23
2022-08-07T14:55:02.481Z,20.19
2022-08-07T14:57:58.683Z,20.11
2022-08-07T15:00:31.298Z,20.09
2022-08-07T15:03:16.668Z,20.07
2022-08-07T15:05:55.354Z,19.94
2022-08-07T15:08:50.168Z,19.90
2022-08-07T15:11:54.285Z,19.78
2022-08-07T15:14:57.698Z,19.68
2022-08-07T15:17:54.575Z,19.68
2022-08-07T15:20:33.339Z,19.68
2022-08-07T15:25:14.181Z,19.65
2022-08-07T15:26:43.734Z,19.62
2022-08-07T15:30:06.419Z,19.58
2022-08-07T15:35:05.282Z,19.50
2022-08-07T15:40:35.270Z,19.37
2022-08-07T15:43:53.373Z,19.30
2022-08-07T15:46:31.857Z,19.32
2022-08-07T15:49:16.669Z,19.21
2022-08-07T15:54:34.541Z,19.18
2022-08-07T15:57:40.287Z,19.21
2022-08-07T16:00:04.441Z,19.20
2022-08-07T16:02:49.303Z,19.23
2022-08-07T16:05:23.068Z,19.17
2022-08-07T16:08:30.742Z,19.20
2022-08-07T16:10:52.043Z,19.25
2022-08-07T16:13:57.854Z,19.21
2022-08-07T16:16:47.965Z,19.15
2022-08-07T16:19:16.917Z,19.12
2022-08-07T16:22:19.443Z,19.14
2022-08-07T16:25:09.021Z,19.11
2022-08-07T16:29:18.640Z,19.09
2022-08-07T16:31:51.108Z,19.06
2022-08-07T16:34:23.619Z,19.05
2022-08-07T16:37:03.009Z,19.04
2022-08-07T16:40:28.623Z,19.02
2022-08-07T16:43:09.397Z,19.01
2022-08-07T16:46:33.542Z,19.02
2022-08-07T16:50:29.278Z,18.97
2022-08-07T16:52:50.817Z,18.99
2022-08-07T16:55:48.068Z,18.98
2022-08-07T16:58:27.485Z,18.88
2022-08-07T17:01:07.896Z,18.76
2022-08-07T17:03:59.854Z,18.76
2022-08-07T17:06:44.569Z,18.80
2022-08-07T17:10:05.448Z,18.78
2022-08-07T17:13:12.030Z,18.77
2022-08-07T17:15:50.802Z,18.72
2022-08-07T17:18:34.952Z,18.71
2022-08-07T17:21:19.034Z,18.66
2022-08-07T17:24:05.871Z,18.64
2022-08-07T17:27:05.370Z,18.62
2022-08-07T17:30:15.339Z,18.58
2022-08-07T17:34:08.545Z,18.57
2022-08-07T17:36:06.018Z,18.57
2022-08-07T17:39:10.572Z,18.53
2022-08-07T17:42:08.763Z,18.47
2022-08-07T17:44:50.587Z,18.46
2022-08-07T17:47:38.002Z,18.46
2022-08-07T17:50:19.977Z,18.43
2022-08-07T17:53:07.883Z,18.41
2022-08-07T17:56:26.179Z,18.34
2022-08-07T17:58:59.168Z,18.31
2022-08-07T18:02:04.675Z,18.30
2022-08-07T18:04:50.422Z,18.21
2022-08-07T18:07:38.201Z,18.21
2022-08-07T18:12:06.246Z,18.14
2022-08-07T18:14:03.698Z,18.07
2022-08-07T18:16:58.320Z,18.03
2022-08-07T18:21:02.973Z,18.02
2022-08-07T18:22:53.121Z,17.95
2022-08-07T18:25:40.307Z,17.90
2022-08-07T18:28:35.322Z,17.89
2022-08-07T18:31:26.788Z,17.86
2022-08-07T18:34:35.938Z,17.86
2022-08-07T18:38:55.411Z,17.83
2022-08-07T18:40:43.089Z,17.78
2022-08-07T18:43:51.045Z,17.76
2022-08-07T18:46:51.267Z,17.69
2022-08-07T18:50:30.760Z,17.64
2022-08-07T18:53:06.164Z,17.66
2022-08-07T18:56:00.264Z,17.64
2022-08-07T18:58:35.861Z,17.60
2022-08-07T19:02:18.291Z,17.55
2022-08-07T19:05:15.600Z,17.45
2022-08-07T19:08:14.816Z,17.44
2022-08-07T19:10:52.645Z,17.40
2022-08-07T19:13:27.754Z,17.34
2022-08-07T19:17:04.802Z,17.34
2022-08-07T19:19:33.934Z,17.30
2022-08-07T19:22:30.990Z,17.25
2022-08-07T19:25:05.659Z,17.25
2022-08-07T19:28:57.819Z,17.20
2022-08-07T19:31:05.964Z,17.10
2022-08-07T19:33:33.643Z,17.07
2022-08-07T19:36:08.733Z,16.98
2022-08-07T19:38:53.365Z,16.98
2022-08-07T19:41:39.230Z,16.97
2022-08-07T19:44:21.813Z,16.95
2022-08-07T19:46:58.021Z,16.92
2022-08-07T19:49:58.515Z,16.91
2022-08-07T19:52:23.691Z,16.87
2022-08-07T19:54:57.390Z,16.84
2022-08-07T19:58:00.290Z,16.82
2022-08-07T20:00:53.076Z,16.80
2022-08-07T20:03:33.929Z,16.80
2022-08-07T20:06:15.265Z,16.76
2022-08-07T20:08:50.378Z,16.75
2022-08-07T20:12:01.593Z,16.72
2022-08-07T20:14:31.233Z,16.70
2022-08-07T20:17:05.607Z,16.73
2022-08-07T20:19:49.465Z,16.71
2022-08-07T20:22:34.141Z,16.68
2022-08-07T20:25:19.287Z,16.66
2022-08-07T20:27:58.385Z,16.65
2022-08-07T20:30:37.269Z,16.63
2022-08-07T20:33:24.247Z,16.53
2022-08-07T20:36:03.799Z,16.51
2022-08-07T20:38:35.351Z,16.50
2022-08-07T20:41:37.821Z,16.50
2022-08-07T20:44:13.044Z,16.48
2022-08-07T20:46:46.815Z,16.48
2022-08-07T20:49:58.423Z,16.45
2022-08-07T20:52:30.093Z,16.47
2022-08-07T20:55:17.907Z,16.48
2022-08-07T20:58:02.671Z,16.43
2022-08-07T21:00:42.967Z,16.44
2022-08-07T21:03:19.248Z,16.44
2022-08-07T21:06:21.781Z,16.42
2022-08-07T21:09:13.620Z,16.43
2022-08-07T21:11:51.032Z,16.41
2022-08-07T21:14:34.204Z,16.43
2022-08-07T21:18:20.429Z,16.42
2022-08-07T21:20:19.078Z,16.37
2022-08-07T21:23:08.154Z,16.39
2022-08-07T21:26:11.022Z,16.32
2022-08-07T21:28:51.150Z,16.29
2022-08-07T21:31:49.501Z,16.31
2022-08-07T21:34:32.216Z,16.29
2022-08-07T21:37:09.073Z,16.30
2022-08-07T21:40:13.807Z,16.26
2022-08-07T21:42:46.814Z,16.22
2022-08-07T21:46:09.180Z,16.15
2022-08-07T21:49:00.437Z,16.11
2022-08-07T21:51:32.171Z,16.12
2022-08-07T21:54:14.277Z,16.07
2022-08-07T21:57:39.913Z,16.07
2022-08-07T22:00:22.202Z,16.06
2022-08-07T22:03:10.338Z,16.07
2022-08-07T22:05:55.633Z,15.98
2022-08-07T22:08:33.571Z,15.97
2022-08-07T22:11:08.425Z,16.00
2022-08-07T22:13:50.207Z,15.97
2022-08-07T22:16:46.168Z,15.96
2022-08-07T22:19:43.065Z,15.87
2022-08-07T22:22:20.858Z,15.89
2022-08-07T22:25:12.056Z,15.89
2022-08-07T22:28:07.727Z,15.89
2022-08-07T22:30:53.042Z,15.88
2022-08-07T22:33:53.617Z,15.91
2022-08-07T22:36:30.352Z,15.94
2022-08-07T22:39:25.932Z,15.98
2022-08-07T22:42:19.401Z,15.96
2022-08-07T22:44:58.402Z,15.98
2022-08-07T22:47:53.885Z,15.99
2022-08-07T22:50:35.914Z,15.99
2022-08-07T22:54:06.775Z,16.00
2022-08-07T22:56:57.317Z,15.97
2022-08-07T23:00:00.420Z,15.97
2022-08-07T23:03:04.507Z,15.95
2022-08-07T23:06:09.268Z,15.95
2022-08-07T23:10:06.250Z,15.89
2022-08-07T23:12:34.071Z,15.84
2022-08-07T23:15:21.881Z,15.82
2022-08-07T23:18:33.207Z,15.79
2022-08-07T23:21:23.127Z,15.76
2022-08-07T23:24:18.923Z,15.70
2022-08-07T23:26:55.081Z,15.66
2022-08-07T23:29:43.665Z,15.63
2022-08-07T23:34:21.451Z,15.58
2022-08-07T23:36:22.821Z,15.52
2022-08-07T23:39:09.702Z,15.51
2022-08-07T23:42:05.881Z,15.51
2022-08-07T23:45:33.293Z,15.49
2022-08-07T23:48:58.764Z,15.42
2022-08-07T23:53:00.785Z,15.42
2022-08-07T23:55:00.907Z,15.41
2022-08-07T23:57:42.745Z,15.39
